Time;durP1;ratioP1;P1;durP2;ratioP2;P2;SDS_P1;SDS_P2;PMS_P1;PMS_P2;Temp;Humidity;BMP_temperature;BMP_pressure;BME280_temperature;BME280_humidity;BME280_pressure;Samples;Min_cycle;Max_cycle;Signal;HPM_P1;HPM_P2
2023/05/19 00:01:08;;;;;;;5.55;3.05;;;8.70;99.90;;;;;;5016652;28;20053;-76
2023/05/19 00:03:39;;;;;;;7.55;3.15;;;8.60;99.90;;;;;;5017343;28;20064;-76
2023/05/19 00:06:09;;;;;;;8.05;3.03;;;8.60;99.90;;;;;;5016894;28;20104;-75
2023/05/19 00:08:37;;;;;;;7.18;3.28;;;8.60;99.90;;;;;;5016467;28;20120;-75
2023/05/19 00:11:03;;;;;;;5.13;2.83;;;8.60;99.90;;;;;;5015321;28;20109;-75
2023/05/19 00:13:29;;;;;;;7.82;3.47;;;8.60;99.90;;;;;;5016619;28;20042;-75
2023/05/19 00:15:55;;;;;;;6.15;3.15;;;8.50;99.90;;;;;;5015691;28;20485;-75
2023/05/19 00:18:21;;;;;;;6.40;3.25;;;8.50;99.90;;;;;;5017947;28;20096;-76
2023/05/19 00:20:47;;;;;;;6.28;2.92;;;8.50;99.90;;;;;;5018650;28;20081;-76
2023/05/19 00:23:12;;;;;;;6.20;3.17;;;8.40;99.90;;;;;;5018868;28;20049;-76
2023/05/19 00:25:38;;;;;;;6.38;3.10;;;8.40;99.90;;;;;;5016130;28;20115;-76
2023/05/19 00:28:04;;;;;;;6.28;3.42;;;8.40;99.90;;;;;;5016148;28;20407;-75
2023/05/19 00:30:29;;;;;;;6.55;3.17;;;8.40;99.90;;;;;;5015925;28;20093;-75
2023/05/19 00:32:55;;;;;;;6.43;3.38;;;8.40;99.90;;;;;;5016255;28;20042;-75
2023/05/19 00:35:22;;;;;;;6.32;3.20;;;8.30;99.90;;;;;;5015990;28;20599;-76
2023/05/19 00:37:48;;;;;;;5.28;3.03;;;8.30;99.90;;;;;;5015822;28;20497;-76
2023/05/19 00:40:14;;;;;;;7.32;3.40;;;8.30;99.90;;;;;;5015933;28;20049;-75
2023/05/19 00:42:40;;;;;;;6.13;3.42;;;8.30;99.90;;;;;;5015192;28;20096;-76
2023/05/19 00:45:07;;;;;;;6.85;3.20;;;8.30;99.90;;;;;;5014711;28;20046;-76
2023/05/19 00:47:33;;;;;;;6.75;3.28;;;8.30;99.90;;;;;;5015731;28;20387;-75
2023/05/19 00:49:58;;;;;;;6.55;2.95;;;8.30;99.90;;;;;;5016061;28;20057;-75
2023/05/19 00:52:25;;;;;;;6.63;3.00;;;8.30;99.90;;;;;;5015630;28;20446;-75
2023/05/19 00:54:52;;;;;;;6.45;3.30;;;8.20;99.90;;;;;;5016414;28;20129;-75
2023/05/19 00:57:19;;;;;;;10.70;3.58;;;8.20;99.90;;;;;;5015538;28;20046;-76
2023/05/19 00:59:46;;;;;;;8.60;3.97;;;8.20;99.90;;;;;;5015297;28;20052;-76
2023/05/19 01:02:13;;;;;;;8.00;3.20;;;8.10;99.90;;;;;;5015425;28;20046;-75
2023/05/19 01:04:40;;;;;;;6.25;3.50;;;8.10;99.90;;;;;;5014789;28;20105;-75
2023/05/19 01:07:06;;;;;;;6.07;3.13;;;8.10;99.90;;;;;;5015413;28;20088;-76
2023/05/19 01:09:32;;;;;;;6.80;3.30;;;8.10;99.90;;;;;;5016173;28;20054;-76
2023/05/19 01:12:00;;;;;;;6.30;3.38;;;8.10;99.90;;;;;;5014163;28;20092;-75
2023/05/19 01:14:27;;;;;;;5.80;3.33;;;8.10;99.90;;;;;;5015014;28;20491;-75
2023/05/19 01:17:05;;;;;;;7.88;3.80;;;8.10;99.90;;;;;;5015156;28;20096;-75
2023/05/19 01:19:52;;;;;;;7.68;3.45;;;8.10;99.90;;;;;;5016064;28;20386;-75
2023/05/19 01:22:47;;;;;;;9.20;3.85;;;8.00;99.90;;;;;;5015452;28;20077;-75
2023/05/19 01:25:37;;;;;;;7.03;3.42;;;7.90;99.90;;;;;;5006736;28;20065;-75
2023/05/19 01:28:33;;;;;;;9.73;3.60;;;7.90;99.90;;;;;;5013942;28;20050;-75
2023/05/19 01:31:00;;;;;;;8.57;3.47;;;7.90;99.90;;;;;;5015347;28;20053;-75
2023/05/19 01:33:29;;;;;;;4.75;3.55;;;7.80;99.90;;;;;;5014910;28;20038;-75
2023/05/19 01:35:55;;;;;;;6.63;3.50;;;7.90;99.90;;;;;;5014584;28;20041;-75
2023/05/19 01:38:22;;;;;;;5.93;3.58;;;7.80;99.90;;;;;;5014765;28;20042;-75
2023/05/19 01:40:50;;;;;;;6.68;3.42;;;7.80;99.90;;;;;;5014896;28;20054;-75
2023/05/19 01:43:19;;;;;;;7.60;3.40;;;7.80;99.90;;;;;;5014791;28;20085;-75
2023/05/19 01:45:45;;;;;;;7.20;3.50;;;7.80;99.90;;;;;;5014776;28;20054;-75
2023/05/19 01:48:12;;;;;;;7.97;3.63;;;7.80;99.90;;;;;;5013978;28;20495;-75
2023/05/19 01:50:39;;;;;;;10.63;4.63;;;7.70;99.90;;;;;;5014628;28;20046;-75
2023/05/19 01:53:05;;;;;;;7.75;3.72;;;7.70;99.90;;;;;;5014648;28;20054;-75
2023/05/19 01:55:31;;;;;;;8.38;4.10;;;7.70;99.90;;;;;;5014598;28;20053;-75
2023/05/19 01:58:08;;;;;;;6.25;3.67;;;7.70;99.90;;;;;;5014375;28;20486;-75
2023/05/19 02:01:05;;;;;;;8.55;4.22;;;7.60;99.90;;;;;;5015277;28;20056;-75
2023/05/19 02:03:52;;;;;;;7.78;3.33;;;7.60;99.90;;;;;;5014458;28;20054;-75
2023/05/19 02:06:27;;;;;;;6.07;3.83;;;7.60;99.90;;;;;;5015061;28;20104;-74
2023/05/19 02:09:17;;;;;;;8.63;3.83;;;7.60;99.90;;;;;;5014302;28;20486;-75
2023/05/19 02:11:59;;;;;;;7.80;3.80;;;7.60;99.90;;;;;;5014289;28;20060;-75
2023/05/19 02:14:39;;;;;;;7.20;4.00;;;7.60;99.90;;;;;;5014106;28;20044;-74
2023/05/19 02:17:05;;;;;;;6.07;3.60;;;7.50;99.90;;;;;;5014109;28;20081;-74
2023/05/19 02:19:33;;;;;;;6.72;4.40;;;7.50;99.90;;;;;;5014204;28;20514;-74
2023/05/19 02:21:59;;;;;;;6.93;3.78;;;7.50;99.90;;;;;;5014196;28;20049;-74
2023/05/19 02:24:25;;;;;;;10.48;3.88;;;7.50;99.90;;;;;;5014193;28;20045;-74
2023/05/19 02:26:52;;;;;;;7.70;3.35;;;7.40;99.90;;;;;;5012588;28;20084;-75
2023/05/19 02:29:19;;;;;;;8.75;3.42;;;7.40;99.90;;;;;;5014012;28;20054;-74
2023/05/19 02:31:45;;;;;;;8.02;3.63;;;7.40;99.90;;;;;;5013949;28;20129;-75
2023/05/19 02:34:10;;;;;;;9.45;4.13;;;7.40;99.90;;;;;;5013465;28;20140;-74
2023/05/19 02:36:40;;;;;;;6.78;3.22;;;7.40;99.90;;;;;;5013224;28;20057;-75
2023/05/19 02:39:05;;;;;;;8.35;3.53;;;7.30;99.90;;;;;;5014441;28;20463;-75
2023/05/19 02:41:31;;;;;;;6.35;3.47;;;7.30;99.90;;;;;;5012789;28;20111;-74
2023/05/19 02:43:57;;;;;;;9.55;4.13;;;7.30;99.90;;;;;;5014089;28;20048;-75
2023/05/19 02:46:23;;;;;;;6.95;4.28;;;7.20;99.90;;;;;;5013160;28;20042;-75
2023/05/19 02:48:49;;;;;;;6.53;3.60;;;7.40;99.90;;;;;;5013858;28;20531;-74
2023/05/19 02:51:15;;;;;;;7.50;3.78;;;7.20;99.90;;;;;;5012882;28;20137;-75
2023/05/19 02:53:40;;;;;;;8.90;3.72;;;7.10;99.90;;;;;;5013113;28;20125;-75
2023/05/19 02:56:06;;;;;;;7.63;3.80;;;7.10;99.90;;;;;;5014603;28;20053;-74
2023/05/19 02:58:32;;;;;;;5.90;3.25;;;7.10;99.90;;;;;;5014336;28;20124;-75
2023/05/19 03:00:57;;;;;;;7.13;3.65;;;7.10;99.90;;;;;;5013980;28;20056;-75
2023/05/19 03:03:23;;;;;;;7.25;3.70;;;7.10;99.90;;;;;;5013329;28;20084;-75
2023/05/19 03:05:49;;;;;;;6.50;3.40;;;7.10;99.90;;;;;;5013706;28;20046;-75
2023/05/19 03:08:14;;;;;;;7.43;3.72;;;7.00;99.90;;;;;;5012669;28;20053;-75
2023/05/19 03:10:40;;;;;;;6.53;3.42;;;7.00;99.90;;;;;;5014171;28;20072;-74
2023/05/19 03:13:06;;;;;;;9.63;3.60;;;7.00;99.90;;;;;;5012598;28;20049;-75
2023/05/19 03:15:32;;;;;;;8.52;3.92;;;7.00;99.90;;;;;;5013622;28;20090;-75
2023/05/19 03:17:57;;;;;;;7.07;3.47;;;7.00;99.90;;;;;;5013899;28;20042;-75
2023/05/19 03:20:23;;;;;;;6.63;3.78;;;7.00;99.90;;;;;;5013414;28;20049;-74
2023/05/19 03:22:49;;;;;;;8.45;3.95;;;7.00;99.90;;;;;;5013511;28;20050;-74
2023/05/19 03:25:15;;;;;;;8.07;3.75;;;7.00;99.90;;;;;;5013509;28;20111;-75
2023/05/19 03:27:42;;;;;;;7.13;3.97;;;7.10;99.90;;;;;;5013538;28;20073;-74
2023/05/19 03:30:08;;;;;;;6.55;3.50;;;7.00;99.90;;;;;;5013854;28;20184;-75
2023/05/19 03:32:36;;;;;;;8.00;4.47;;;6.90;99.90;;;;;;5013007;28;20046;-74
2023/05/19 03:35:04;;;;;;;10.23;4.10;;;7.00;99.90;;;;;;5011599;28;20054;-75
2023/05/19 03:37:31;;;;;;;7.15;3.88;;;7.00;99.90;;;;;;5013199;28;20057;-74
2023/05/19 03:39:57;;;;;;;6.40;3.97;;;7.00;99.90;;;;;;5013243;28;20053;-75
2023/05/19 03:42:23;;;;;;;7.05;3.80;;;7.00;99.90;;;;;;5013259;28;20061;-75
2023/05/19 03:44:48;;;;;;;7.55;3.70;;;7.00;99.90;;;;;;5014638;28;20045;-74
2023/05/19 03:47:14;;;;;;;7.65;4.07;;;7.00;99.90;;;;;;5016937;28;20049;-75
2023/05/19 03:49:40;;;;;;;11.18;4.13;;;7.00;99.90;;;;;;5015946;28;20108;-75
2023/05/19 03:52:06;;;;;;;7.43;3.45;;;7.00;99.90;;;;;;5017172;28;20054;-74
2023/05/19 03:54:32;;;;;;;5.40;3.45;;;6.90;99.90;;;;;;5015844;28;20049;-74
2023/05/19 03:56:58;;;;;;;6.97;3.85;;;6.90;99.90;;;;;;5017204;28;20138;-74
2023/05/19 03:59:23;;;;;;;8.98;3.78;;;6.90;99.90;;;;;;5015697;28;20495;-74
2023/05/19 04:01:50;;;;;;;24.73;4.40;;;6.90;99.90;;;;;;5016617;28;20042;-74
2023/05/19 04:04:15;;;;;;;16.40;4.25;;;6.90;99.90;;;;;;5016653;28;20046;-74
2023/05/19 04:06:41;;;;;;;29.48;4.90;;;7.00;99.90;;;;;;5015420;28;20046;-74
2023/05/19 04:09:12;;;;;;;10.85;3.47;;;6.90;99.90;;;;;;5016569;28;20052;-74
2023/05/19 04:11:39;;;;;;;9.32;3.35;;;6.90;99.90;;;;;;5017130;28;20153;-74
2023/05/19 04:14:05;;;;;;;18.48;3.78;;;6.90;99.90;;;;;;5015223;28;20474;-74
2023/05/19 04:16:31;;;;;;;14.48;3.85;;;7.00;99.90;;;;;;5016942;28;20172;-74
2023/05/19 04:18:56;;;;;;;10.85;3.35;;;7.00;99.90;;;;;;5016392;28;20155;-74
2023/05/19 04:21:22;;;;;;;13.25;3.65;;;7.00;99.90;;;;;;5015969;28;20045;-74
2023/05/19 04:23:48;;;;;;;16.20;4.00;;;7.00;99.90;;;;;;5016450;28;20038;-74
2023/05/19 04:26:13;;;;;;;20.25;3.65;;;7.00;99.90;;;;;;5014825;28;20430;-75
2023/05/19 04:28:41;;;;;;;4.90;3.42;;;7.00;99.90;;;;;;5015993;28;20049;-75
2023/05/19 04:31:11;;;;;;;4.90;2.58;;;7.00;99.90;;;;;;5016664;28;20054;-75
2023/05/19 04:33:38;;;;;;;4.95;2.90;;;7.00;99.90;;;;;;5016134;28;20136;-75
2023/05/19 04:36:09;;;;;;;4.57;3.05;;;7.00;99.90;;;;;;5016088;28;20372;-75
2023/05/19 04:38:38;;;;;;;6.97;3.47;;;7.00;99.90;;;;;;5016265;28;20046;-74
2023/05/19 04:41:10;;;;;;;5.28;3.10;;;7.00;99.90;;;;;;5015922;28;20069;-74
2023/05/19 04:43:40;;;;;;;5.25;3.15;;;7.10;99.90;;;;;;5015987;28;20050;-74
2023/05/19 04:46:08;;;;;;;6.15;3.60;;;7.10;99.90;;;;;;5015933;28;20041;-74
2023/05/19 04:48:34;;;;;;;5.85;3.63;;;7.20;99.90;;;;;;5014588;28;20498;-74
2023/05/19 04:51:00;;;;;;;7.43;3.47;;;7.30;99.90;;;;;;5015742;28;20053;-74
2023/05/19 04:53:30;;;;;;;7.30;3.70;;;7.40;99.90;;;;;;5016203;28;20061;-74
2023/05/19 04:55:57;;;;;;;11.68;3.63;;;7.50;99.90;;;;;;5016291;28;20582;-74
2023/05/19 04:58:26;;;;;;;5.88;3.70;;;7.50;99.90;;;;;;5018433;28;20124;-75
2023/05/19 05:00:54;;;;;;;9.02;3.85;;;7.60;99.90;;;;;;5015945;28;20084;-75
2023/05/19 05:03:21;;;;;;;8.40;3.50;;;7.70;99.90;;;;;;5015452;28;20129;-75
2023/05/19 05:05:47;;;;;;;8.43;4.20;;;7.80;99.90;;;;;;5014256;28;20052;-75
2023/05/19 05:08:15;;;;;;;8.80;4.10;;;7.90;99.90;;;;;;5015454;28;20042;-75
2023/05/19 05:10:41;;;;;;;8.25;4.30;;;8.00;99.90;;;;;;5015937;28;20054;-75
2023/05/19 05:13:07;;;;;;;8.32;4.07;;;8.10;99.90;;;;;;5014398;28;20041;-75
2023/05/19 05:15:34;;;;;;;9.65;4.65;;;8.10;99.90;;;;;;5015318;28;20126;-75
2023/05/19 05:18:00;;;;;;;7.75;4.75;;;8.20;99.90;;;;;;5014051;28;20560;-75
2023/05/19 05:20:26;;;;;;;7.90;4.13;;;8.30;99.90;;;;;;5014828;28;20125;-75
2023/05/19 05:22:52;;;;;;;8.55;5.15;;;8.40;99.90;;;;;;5015177;28;20060;-75
2023/05/19 05:25:18;;;;;;;6.35;3.80;;;8.50;99.90;;;;;;5014388;28;20473;-75
2023/05/19 05:27:44;;;;;;;7.75;4.15;;;8.60;99.90;;;;;;5013767;28;20058;-75
2023/05/19 05:30:10;;;;;;;7.88;4.38;;;8.70;99.90;;;;;;5015001;28;20112;-75
2023/05/19 05:32:36;;;;;;;8.35;4.70;;;8.70;99.90;;;;;;5015513;28;20042;-75
2023/05/19 05:35:02;;;;;;;6.43;4.32;;;8.80;99.90;;;;;;5014885;28;20038;-75
2023/05/19 05:37:27;;;;;;;7.28;4.50;;;9.00;99.90;;;;;;5014748;28;20049;-75
2023/05/19 05:39:53;;;;;;;8.02;5.07;;;9.10;99.90;;;;;;5015409;28;20052;-75
2023/05/19 05:42:19;;;;;;;7.63;5.13;;;9.20;99.90;;;;;;5014869;28;20054;-75
2023/05/19 05:44:44;;;;;;;8.60;5.00;;;9.30;99.90;;;;;;5014729;28;20111;-75
2023/05/19 05:47:11;;;;;;;9.45;5.75;;;9.30;99.90;;;;;;5013774;28;20053;-75
2023/05/19 05:49:37;;;;;;;7.68;4.32;;;9.40;99.90;;;;;;5014757;28;20076;-75
2023/05/19 05:52:04;;;;;;;7.63;4.88;;;9.40;99.90;;;;;;5015168;28;20054;-75
2023/05/19 05:54:30;;;;;;;8.88;5.10;;;9.40;99.90;;;;;;5013534;28;20054;-75
2023/05/19 05:56:56;;;;;;;7.88;4.70;;;9.50;99.90;;;;;;5013840;28;20053;-75
2023/05/19 05:59:22;;;;;;;10.27;4.88;;;9.60;99.90;;;;;;5014695;28;20068;-75
2023/05/19 06:01:47;;;;;;;9.73;5.40;;;9.70;99.90;;;;;;5013532;28;20045;-75
2023/05/19 06:04:13;;;;;;;9.10;4.97;;;9.90;99.90;;;;;;5014592;28;20049;-75
2023/05/19 06:06:38;;;;;;;9.45;5.47;;;10.00;99.90;;;;;;5014787;28;20060;-75
2023/05/19 06:09:04;;;;;;;8.77;4.97;;;10.10;99.90;;;;;;5013665;28;20041;-75
2023/05/19 06:11:31;;;;;;;10.63;4.97;;;10.10;99.90;;;;;;5015112;28;20054;-75
2023/05/19 06:13:56;;;;;;;7.50;4.88;;;10.20;99.90;;;;;;5014298;28;20105;-75
2023/05/19 06:16:22;;;;;;;9.00;4.95;;;10.30;99.90;;;;;;5013842;28;20050;-75
2023/05/19 06:18:48;;;;;;;7.25;5.15;;;10.30;99.90;;;;;;5014944;28;20045;-65
2023/05/19 06:21:14;;;;;;;6.75;4.53;;;10.40;99.90;;;;;;5014267;28;20054;-65
2023/05/19 06:23:40;;;;;;;8.40;5.13;;;10.60;99.90;;;;;;5014411;28;20514;-65
2023/05/19 06:26:06;;;;;;;8.15;4.82;;;10.70;99.90;;;;;;5014095;28;20074;-65
2023/05/19 06:28:32;;;;;;;10.13;5.22;;;10.90;99.90;;;;;;5014553;28;20049;-65
2023/05/19 06:30:58;;;;;;;9.52;4.47;;;11.00;99.90;;;;;;5013759;28;20517;-64
2023/05/19 06:33:24;;;;;;;6.70;4.53;;;11.20;99.90;;;;;;5014074;28;20042;-64
2023/05/19 06:35:50;;;;;;;7.63;4.28;;;11.30;99.90;;;;;;5013923;28;20132;-65
2023/05/19 06:38:16;;;;;;;8.02;4.53;;;11.50;99.90;;;;;;5013751;28;20053;-65
2023/05/19 06:40:41;;;;;;;5.45;4.00;;;11.60;99.90;;;;;;5013802;28;20176;-65
2023/05/19 06:43:07;;;;;;;9.38;4.25;;;11.70;99.90;;;;;;5013910;28;20049;-65
2023/05/19 06:45:33;;;;;;;9.40;6.85;;;11.80;99.90;;;;;;5014065;28;20050;-65
2023/05/19 06:47:59;;;;;;;6.13;4.00;;;11.90;99.90;;;;;;5014523;28;20471;-65
2023/05/19 06:50:25;;;;;;;9.23;4.13;;;12.00;99.90;;;;;;5013751;28;20057;-65
2023/05/19 06:52:50;;;;;;;8.73;3.75;;;12.10;99.90;;;;;;5013751;28;20475;-65
2023/05/19 06:55:16;;;;;;;7.57;3.75;;;12.20;99.90;;;;;;5013670;28;20100;-65
2023/05/19 06:57:42;;;;;;;7.10;3.65;;;12.30;99.90;;;;;;5014018;28;20041;-65
2023/05/19 07:00:11;;;;;;;6.07;3.38;;;12.40;99.90;;;;;;5013940;28;20050;-65
2023/05/19 07:02:40;;;;;;;7.55;3.97;;;12.50;99.90;;;;;;5013593;28;20045;-65
2023/05/19 07:05:07;;;;;;;6.45;3.95;;;12.60;99.90;;;;;;5013960;28;20049;-65
2023/05/19 07:07:32;;;;;;;6.78;3.50;;;12.80;99.90;;;;;;5013013;28;20110;-65
2023/05/19 07:09:58;;;;;;;9.43;3.90;;;12.90;99.90;;;;;;5012712;28;20045;-65
2023/05/19 07:12:25;;;;;;;7.07;3.20;;;13.00;99.90;;;;;;5013618;28;20474;-65
2023/05/19 07:14:51;;;;;;;6.05;2.80;;;13.20;99.90;;;;;;5013540;28;20444;-65
2023/05/19 07:17:17;;;;;;;6.07;3.20;;;13.20;99.90;;;;;;5012284;28;20100;-64
2023/05/19 07:19:43;;;;;;;6.40;3.30;;;13.30;99.90;;;;;;5015007;28;20050;-75
2023/05/19 07:22:08;;;;;;;5.38;2.67;;;13.40;99.90;;;;;;5017042;28;20053;-78
2023/05/19 07:24:34;;;;;;;7.20;2.90;;;13.50;99.90;;;;;;5017201;28;20485;-79
2023/05/19 07:27:00;;;;;;;5.88;2.85;;;13.70;99.90;;;;;;5016816;28;20058;-75
2023/05/19 07:29:26;;;;;;;6.85;2.42;;;13.70;99.90;;;;;;5000088;28;20132;-76
2023/05/19 07:31:56;;;;;;;6.72;2.60;;;13.80;99.90;;;;;;5017147;28;20136;-76
2023/05/19 07:34:24;;;;;;;3.85;2.35;;;13.90;99.90;;;;;;5016966;28;20053;-75
2023/05/19 07:36:50;;;;;;;6.03;2.70;;;14.00;99.90;;;;;;5017089;28;20042;-75
2023/05/19 07:39:16;;;;;;;5.32;2.70;;;14.10;99.90;;;;;;5017042;28;20050;-76
2023/05/19 07:41:42;;;;;;;5.10;2.40;;;14.20;99.90;;;;;;5016919;28;20048;-76
2023/05/19 07:44:09;;;;;;;5.32;2.05;;;14.40;99.90;;;;;;5017523;28;20156;-76
2023/05/19 07:46:37;;;;;;;4.30;2.10;;;14.50;99.90;;;;;;5015992;28;20054;-76
2023/05/19 07:49:03;;;;;;;5.70;2.75;;;14.60;99.90;;;;;;5000722;28;20439;-77
2023/05/19 07:51:30;;;;;;;6.13;2.20;;;14.70;99.90;;;;;;5015703;28;20096;-77
2023/05/19 07:53:56;;;;;;;4.45;2.08;;;14.80;99.90;;;;;;5015684;28;20045;-79
2023/05/19 07:56:23;;;;;;;5.20;2.20;;;14.90;99.90;;;;;;5016789;28;20092;-77
2023/05/19 07:58:49;;;;;;;4.90;1.75;;;15.00;99.90;;;;;;5016847;28;20073;-78
2023/05/19 08:01:15;;;;;;;5.55;1.92;;;15.00;99.90;;;;;;5016382;28;20058;-80
2023/05/19 08:03:41;;;;;;;4.05;1.90;;;15.10;99.90;;;;;;5016495;28;20046;-81
2023/05/19 08:06:06;;;;;;;4.15;2.40;;;15.20;99.90;;;;;;5017103;28;20133;-74
2023/05/19 08:08:32;;;;;;;5.13;1.98;;;15.20;99.90;;;;;;5016464;28;20053;-73
2023/05/19 08:11:02;;;;;;;9.35;2.10;;;15.20;99.90;;;;;;5016212;28;20034;-77
2023/05/19 08:13:28;;;;;;;4.93;1.95;;;15.30;99.90;;;;;;5016312;28;20132;-74
2023/05/19 08:15:58;;;;;;;5.65;1.90;;;15.40;99.90;;;;;;5016378;28;20129;-74
2023/05/19 08:18:24;;;;;;;4.70;2.13;;;15.50;99.90;;;;;;5016730;28;20045;-74
2023/05/19 08:20:50;;;;;;;4.63;1.95;;;15.60;99.90;;;;;;5015974;28;20494;-74
2023/05/19 08:23:16;;;;;;;3.67;2.17;;;15.70;99.90;;;;;;5016248;28;20100;-77
2023/05/19 08:25:43;;;;;;;4.53;1.73;;;15.80;99.90;;;;;;4998122;28;20487;-77
2023/05/19 08:28:09;;;;;;;4.80;1.92;;;15.90;99.90;;;;;;5016091;28;20167;-75
2023/05/19 08:30:35;;;;;;;3.45;2.08;;;16.00;99.90;;;;;;5014433;28;20050;-74
2023/05/19 08:33:01;;;;;;;4.80;1.80;;;16.10;99.90;;;;;;5015964;28;20482;-79
2023/05/19 08:35:27;;;;;;;5.35;2.05;;;16.10;99.90;;;;;;5016370;28;20050;-77
2023/05/19 08:37:53;;;;;;;5.78;2.03;;;16.20;99.90;;;;;;5014645;28;20449;-78
2023/05/19 08:40:19;;;;;;;5.35;1.65;;;16.40;99.90;;;;;;5014969;28;20128;-75
2023/05/19 08:42:45;;;;;;;5.28;1.90;;;16.60;99.90;;;;;;5015774;28;20046;-72
2023/05/19 08:45:11;;;;;;;5.30;2.25;;;16.70;99.90;;;;;;5015457;28;20490;-73
2023/05/19 08:47:37;;;;;;;3.97;1.90;;;16.80;99.90;;;;;;5014373;28;20046;-73
2023/05/19 08:50:08;;;;;;;3.47;1.80;;;16.90;99.90;;;;;;5016056;28;20061;-72
2023/05/19 08:52:56;;;;;;;6.25;2.00;;;17.00;99.90;;;;;;5015702;28;20533;-72
2023/05/19 08:55:28;;;;;;;5.03;2.17;;;17.10;99.90;;;;;;5016249;28;20045;-71
2023/05/19 08:57:55;;;;;;;4.20;1.90;;;17.20;99.90;;;;;;5016222;28;20042;-68
2023/05/19 09:00:21;;;;;;;5.95;1.90;;;17.20;99.90;;;;;;5015505;28;20407;-75
2023/05/19 09:02:52;;;;;;;3.90;1.90;;;17.30;99.90;;;;;;5014410;28;20105;-76
2023/05/19 09:05:18;;;;;;;4.85;1.85;;;17.40;99.90;;;;;;5015507;28;20050;-74
2023/05/19 09:07:44;;;;;;;5.30;2.25;;;17.50;99.90;;;;;;5015444;28;20071;-74
2023/05/19 09:10:15;;;;;;;4.80;1.98;;;17.60;99.90;;;;;;5015244;28;20165;-75
2023/05/19 09:12:44;;;;;;;4.15;1.70;;;17.50;99.90;;;;;;5015823;28;20060;-74
2023/05/19 09:15:11;;;;;;;3.53;1.60;;;17.50;99.90;;;;;;5015132;28;20513;-73
2023/05/19 09:17:37;;;;;;;4.35;1.80;;;17.50;99.90;;;;;;5015873;28;20085;-74
2023/05/19 09:20:09;;;;;;;6.45;1.80;;;17.50;99.90;;;;;;5015089;28;20073;-75
2023/05/19 09:22:46;;;;;;;6.10;2.00;;;17.50;99.90;;;;;;5014026;28;20483;-74
2023/05/19 09:25:22;;;;;;;4.70;1.67;;;17.70;99.90;;;;;;4998247;28;20111;-74
2023/05/19 09:27:49;;;;;;;4.53;2.08;;;17.80;99.90;;;;;;5016977;28;20136;-74
2023/05/19 09:30:18;;;;;;;3.55;1.70;;;17.90;99.90;;;;;;5017509;28;20050;-74
2023/05/19 09:32:45;;;;;;;3.83;1.73;;;18.10;99.90;;;;;;5016062;28;20038;-75
2023/05/19 09:35:18;;;;;;;4.53;2.05;;;18.20;99.90;;;;;;5014216;28;20064;-75
2023/05/19 09:37:45;;;;;;;3.75;2.03;;;18.30;99.90;;;;;;5014527;28;20050;-74
2023/05/19 09:40:13;;;;;;;5.45;2.17;;;18.50;99.90;;;;;;5014752;28;20092;-72
2023/05/19 09:42:40;;;;;;;4.70;1.80;;;18.50;99.90;;;;;;5014637;28;20092;-72
2023/05/19 09:45:10;;;;;;;5.80;1.77;;;18.50;99.90;;;;;;5014583;28;20049;-72
2023/05/19 09:47:40;;;;;;;5.78;2.05;;;18.60;99.90;;;;;;5014598;28;20050;-72
2023/05/19 09:50:08;;;;;;;5.72;2.00;;;18.70;99.90;;;;;;5014618;28;20064;-73
2023/05/19 09:52:38;;;;;;;6.55;2.05;;;18.70;99.90;;;;;;5014765;28;20123;-73
2023/05/19 09:55:05;;;;;;;3.67;1.90;;;18.80;99.90;;;;;;5014844;28;20092;-75
2023/05/19 09:57:38;;;;;;;4.28;1.70;;;19.00;99.90;;;;;;5014461;28;20057;-70
2023/05/19 10:00:10;;;;;;;4.70;1.98;;;19.20;99.90;;;;;;5014431;28;20585;-73
2023/05/19 10:02:40;;;;;;;5.22;2.03;;;19.40;99.90;;;;;;5014448;28;20049;-73
2023/05/19 10:05:06;;;;;;;5.03;2.00;;;19.10;99.90;;;;;;5014611;28;20046;-74
2023/05/19 10:07:33;;;;;;;5.53;2.15;;;19.00;99.90;;;;;;5013077;28;20132;-74
2023/05/19 10:09:59;;;;;;;3.67;1.50;;;19.20;99.90;;;;;;5014141;28;20089;-76
2023/05/19 10:12:25;;;;;;;4.68;1.77;;;19.40;99.90;;;;;;5014989;28;20053;-73
2023/05/19 10:14:53;;;;;;;5.25;1.98;;;19.50;99.90;;;;;;5014200;28;20046;-69
2023/05/19 10:17:20;;;;;;;3.45;1.55;;;19.60;99.90;;;;;;5014849;28;20143;-70
2023/05/19 10:19:48;;;;;;;5.70;1.88;;;19.80;99.90;;;;;;5014634;28;20046;-72
2023/05/19 10:22:14;;;;;;;3.15;1.73;;;19.80;99.90;;;;;;5014070;28;20128;-77
2023/05/19 10:24:39;;;;;;;3.70;1.50;;;19.80;99.90;;;;;;5013083;28;20080;-73
2023/05/19 10:27:10;;;;;;;4.35;1.75;;;19.90;99.90;;;;;;5013899;28;20058;-72
2023/05/19 10:29:39;;;;;;;4.22;1.67;;;20.00;99.90;;;;;;5013932;28;20451;-73
2023/05/19 10:32:13;;;;;;;3.50;1.83;;;20.00;99.90;;;;;;5013920;28;20065;-72
2023/05/19 10:35:10;;;;;;;3.95;1.90;;;19.80;99.90;;;;;;5014247;28;20061;-74
2023/05/19 10:37:57;;;;;;;4.28;1.67;;;19.50;99.90;;;;;;5014195;28;20467;-74
2023/05/19 10:40:27;;;;;;;3.83;1.85;;;19.30;99.90;;;;;;5013882;28;20045;-73
2023/05/19 10:43:01;;;;;;;4.28;1.88;;;19.20;99.90;;;;;;5013623;28;20498;-64
2023/05/19 10:45:32;;;;;;;5.65;1.90;;;19.40;99.90;;;;;;5014362;28;20061;-64
2023/05/19 10:47:57;;;;;;;1.88;1.20;;;19.80;99.90;;;;;;5014348;28;20046;-64
2023/05/19 10:50:23;;;;;;;2.55;1.63;;;20.10;99.90;;;;;;5014083;28;20048;-65
2023/05/19 10:52:55;;;;;;;4.68;1.75;;;20.20;99.90;;;;;;5013620;28;20053;-65
2023/05/19 10:55:43;;;;;;;3.33;1.70;;;20.30;99.90;;;;;;5013296;28;20060;-64
2023/05/19 10:58:10;;;;;;;3.60;1.63;;;20.30;99.90;;;;;;5014152;28;20046;-64
2023/05/19 11:00:38;;;;;;;5.18;1.60;;;20.00;99.90;;;;;;5012286;28;20386;-65
2023/05/19 11:03:17;;;;;;;4.47;1.70;;;20.00;99.90;;;;;;5014208;28;20053;-64
2023/05/19 11:05:45;;;;;;;3.83;1.60;;;20.00;99.90;;;;;;5013654;28;20049;-64
2023/05/19 11:08:11;;;;;;;3.55;1.55;;;20.10;99.90;;;;;;5013834;28;20117;-64
2023/05/19 11:10:38;;;;;;;4.30;1.30;;;20.20;99.90;;;;;;5013573;28;20048;-64
2023/05/19 11:13:04;;;;;;;3.53;1.40;;;20.10;99.90;;;;;;5013509;28;20081;-66
2023/05/19 11:15:33;;;;;;;3.92;1.50;;;20.10;99.90;;;;;;5013531;28;20042;-65
2023/05/19 11:18:01;;;;;;;5.60;1.40;;;20.40;99.90;;;;;;5013453;28;20042;-65
2023/05/19 11:20:28;;;;;;;4.00;1.52;;;20.60;99.90;;;;;;5013676;28;20050;-65
2023/05/19 11:23:20;;;;;;;2.92;1.40;;;21.00;99.90;;;;;;5014014;28;20447;-67
2023/05/19 11:25:51;;;;;;;3.35;1.38;;;21.50;99.90;;;;;;5012103;28;20057;-66
2023/05/19 11:28:24;;;;;;;4.82;1.40;;;21.80;99.90;;;;;;5013162;28;20136;-66
2023/05/19 11:30:53;;;;;;;6.15;1.48;;;21.70;99.90;;;;;;5013800;28;20096;-64
2023/05/19 11:33:20;;;;;;;5.13;1.70;;;21.80;99.90;;;;;;5013321;28;20049;-65
2023/05/19 11:35:48;;;;;;;3.38;1.48;;;21.90;99.90;;;;;;5013566;28;20061;-65
2023/05/19 11:38:15;;;;;;;4.65;1.80;;;22.00;99.90;;;;;;5014033;28;20371;-65
2023/05/19 11:40:42;;;;;;;3.67;1.88;;;22.00;99.90;;;;;;5013572;28;20108;-65
2023/05/19 11:43:07;;;;;;;3.05;1.50;;;22.00;99.90;;;;;;5013337;28;20053;-65
2023/05/19 11:45:34;;;;;;;4.57;1.73;;;22.00;99.90;;;;;;5013710;28;20052;-65
2023/05/19 11:48:01;;;;;;;3.88;1.80;;;22.10;99.90;;;;;;5013250;28;20125;-65
2023/05/19 11:50:27;;;;;;;3.35;1.40;;;22.30;99.90;;;;;;5012491;28;20108;-65
2023/05/19 11:52:54;;;;;;;3.55;1.50;;;22.50;99.90;;;;;;5013565;28;20133;-65
2023/05/19 11:55:21;;;;;;;3.53;1.60;;;22.80;99.90;;;;;;5013108;28;20056;-65
2023/05/19 11:57:57;;;;;;;3.60;1.40;;;23.00;99.90;;;;;;5012179;28;20173;-65
2023/05/19 12:00:26;;;;;;;2.53;1.30;;;23.20;99.90;;;;;;5012982;28;20046;-65
2023/05/19 12:02:52;;;;;;;2.97;1.40;;;22.90;99.90;;;;;;5011677;28;20387;-65
2023/05/19 12:05:25;;;;;;;6.10;1.80;;;22.90;99.90;;;;;;5013850;28;20076;-65
2023/05/19 12:07:51;;;;;;;3.60;1.60;;;22.80;99.90;;;;;;5016530;28;20045;-65
2023/05/19 12:10:25;;;;;;;2.67;1.40;;;22.80;99.90;;;;;;5016283;28;20398;-65
2023/05/19 12:12:50;;;;;;;4.35;1.60;;;22.80;99.90;;;;;;5016276;28;20089;-67
2023/05/19 12:15:23;;;;;;;4.40;1.92;;;22.50;99.90;;;;;;5016530;28;20081;-67
2023/05/19 12:17:57;;;;;;;4.88;2.58;;;22.20;99.90;;;;;;5016217;28;20034;-67
2023/05/19 12:20:24;;;;;;;5.97;1.80;;;22.00;99.90;;;;;;5016303;28;20118;-67
2023/05/19 12:22:51;;;;;;;4.85;1.73;;;22.00;99.90;;;;;;5016158;28;20128;-66
2023/05/19 12:25:17;;;;;;;4.22;1.65;;;22.30;99.90;;;;;;5016217;28;20050;-65
2023/05/19 12:27:43;;;;;;;3.47;1.45;;;22.70;99.90;;;;;;5016432;28;20136;-65
2023/05/19 12:30:11;;;;;;;3.72;1.73;;;23.10;99.90;;;;;;5016326;28;20068;-65
2023/05/19 12:32:37;;;;;;;5.45;1.67;;;23.40;99.90;;;;;;5015993;28;20057;-65
2023/05/19 12:35:04;;;;;;;4.95;1.50;;;23.50;99.90;;;;;;5016013;28;20054;-66
2023/05/19 12:37:34;;;;;;;5.72;1.65;;;23.20;99.90;;;;;;5015903;28;20467;-65
2023/05/19 12:40:02;;;;;;;2.65;1.30;;;23.00;99.90;;;;;;5015944;28;20046;-66
2023/05/19 12:42:30;;;;;;;3.90;1.80;;;22.70;99.90;;;;;;5015964;28;20457;-66
2023/05/19 12:44:57;;;;;;;4.18;1.80;;;22.70;99.90;;;;;;5015877;28;20053;-66
2023/05/19 12:47:31;;;;;;;4.38;1.77;;;22.60;99.90;;;;;;5016537;28;20104;-69
2023/05/19 12:50:07;;;;;;;4.25;1.77;;;22.50;99.90;;;;;;5015741;28;20132;-66
2023/05/19 12:52:41;;;;;;;3.42;1.40;;;22.90;99.90;;;;;;5015715;28;20050;-65
2023/05/19 12:55:09;;;;;;;4.05;1.40;;;23.50;99.90;;;;;;5016298;28;20053;-64